Famagusta, Cyprus
Current Conditions -  °F | °C
As of 8:50 PM on Thursday 29 Jan 2015 (Local Time) from LCEN Reporting Station
Few Clouds Few Clouds  
Wind Chill: 46°   Ceiling: Unl
Heat Index: 48°   Visibility: 6mi
Dew Point: 45°   Wind: 5mph
Humidity: 87%   Direction: 220°SW
Pressure: 29.88"   Gusts: NA
Location:  35.33°N, 34.07°E
Report Text: LCEN 291750Z 22004KT 9999 FEW025 FEW030CB 09/07 Q1012 NOSIG
Loading
Personal Weather Stations






























Interactive Weather Map New forecast layout! Learn more

10-Day Weather Forecast

Advertisements
Track Severe Weather on mobile